Time;durP1;ratioP1;P1;durP2;ratioP2;P2;SDS_P1;SDS_P2;PMS_P1;PMS_P2;Temp;Humidity;BMP_temperature;BMP_pressure;BME280_temperature;BME280_humidity;BME280_pressure;Samples;Min_cycle;Max_cycle;Signal;HPM_P1;HPM_P2
2024/01/18 00:01:38;;;;;;;;;;;5.10;75.50;;;;;;5050763;28;19986;-73
2024/01/18 00:04:04;;;;;;;;;;;5.20;75.50;;;;;;5052996;28;19947;-74
2024/01/18 00:06:32;;;;;;;;;;;5.20;75.40;;;;;;5052477;28;19921;-74
2024/01/18 00:08:58;;;;;;;;;;;5.20;76.00;;;;;;5060702;28;19927;-74
2024/01/18 00:11:25;;;;;;;;;;;5.20;76.80;;;;;;5052117;28;20004;-74
2024/01/18 00:13:51;;;;;;;;;;;5.20;78.10;;;;;;5052389;28;19921;-73
2024/01/18 00:16:17;;;;;;;;;;;5.20;77.10;;;;;;5052726;28;19940;-74
2024/01/18 00:18:43;;;;;;;;;;;5.20;76.80;;;;;;5050131;28;20000;-74
2024/01/18 00:21:08;;;;;;;;;;;5.20;77.60;;;;;;5051883;28;20003;-73
2024/01/18 00:23:34;;;;;;;;;;;5.20;76.70;;;;;;5051021;28;20400;-72
2024/01/18 00:26:00;;;;;;;;;;;5.20;77.10;;;;;;5052170;28;20023;-73
2024/01/18 00:28:26;;;;;;;;;;;5.20;77.10;;;;;;5050978;28;19929;-74
2024/01/18 00:30:52;;;;;;;;;;;5.30;78.20;;;;;;5033604;28;19921;-73
2024/01/18 00:33:18;;;;;;;;;;;5.30;77.80;;;;;;5052775;28;20397;-72
2024/01/18 00:35:44;;;;;;;;;;;5.40;77.50;;;;;;5052556;28;19967;-72
2024/01/18 00:38:10;;;;;;;;;;;5.50;77.40;;;;;;5051960;28;19963;-73
2024/01/18 00:40:36;;;;;;;;;;;5.50;77.10;;;;;;5050278;28;19920;-74
2024/01/18 00:43:02;;;;;;;;;;;5.50;77.50;;;;;;5050191;28;19929;-74
2024/01/18 00:45:27;;;;;;;;;;;5.50;77.70;;;;;;5052039;28;19917;-72
2024/01/18 00:47:53;;;;;;;;;;;5.60;77.50;;;;;;5050801;28;20011;-74
2024/01/18 00:50:19;;;;;;;;;;;5.50;77.90;;;;;;5050611;28;19920;-74
2024/01/18 00:52:45;;;;;;;;;;;5.60;78.50;;;;;;5052140;28;20365;-73
2024/01/18 00:55:11;;;;;;;;;;;5.60;77.50;;;;;;5050533;28;20011;-72
2024/01/18 00:57:37;;;;;;;;;;;5.60;77.30;;;;;;5052016;28;20292;-74
2024/01/18 01:00:05;;;;;;;;;;;5.70;77.10;;;;;;5051114;28;19925;-74
2024/01/18 01:02:31;;;;;;;;;;;5.70;76.80;;;;;;5034282;28;20352;-73
2024/01/18 01:04:56;;;;;;;;;;;5.70;77.10;;;;;;5051016;28;19917;-73
2024/01/18 01:07:22;;;;;;;;;;;5.70;76.90;;;;;;5050133;28;19956;-73
2024/01/18 01:09:48;;;;;;;;;;;5.70;77.00;;;;;;5033624;28;19972;-74
2024/01/18 01:12:14;;;;;;;;;;;5.70;77.40;;;;;;5049969;28;20007;-72
2024/01/18 01:14:40;;;;;;;;;;;5.70;77.30;;;;;;5050263;28;19926;-72
2024/01/18 01:17:06;;;;;;;;;;;5.80;77.30;;;;;;5051569;28;20051;-73
2024/01/18 01:19:32;;;;;;;;;;;5.80;77.30;;;;;;5051722;28;19985;-73
2024/01/18 01:21:57;;;;;;;;;;;5.80;77.10;;;;;;5051558;28;20449;-74
2024/01/18 01:24:23;;;;;;;;;;;5.90;77.30;;;;;;5052400;28;19920;-74
2024/01/18 01:26:50;;;;;;;;;;;5.90;77.20;;;;;;5051886;28;20336;-73
2024/01/18 01:29:16;;;;;;;;;;;5.90;76.80;;;;;;5052530;28;19992;-73
2024/01/18 01:31:43;;;;;;;;;;;6.00;76.80;;;;;;5049895;28;19921;-73
2024/01/18 01:34:09;;;;;;;;;;;6.00;77.50;;;;;;5052168;28;19928;-74
2024/01/18 01:36:34;;;;;;;;;;;6.10;77.20;;;;;;5050438;28;19917;-73
2024/01/18 01:39:00;;;;;;;;;;;6.10;77.10;;;;;;5049712;28;19931;-74
2024/01/18 01:41:26;;;;;;;;;;;6.10;77.30;;;;;;5050174;28;19999;-73
2024/01/18 01:44:11;;;;;;;;;;;6.10;77.10;;;;;;5051953;28;20366;-72
2024/01/18 01:46:37;;;;;;;;;;;6.20;76.60;;;;;;5045886;28;20270;-73
2024/01/18 01:49:05;;;;;;;;;;;6.20;77.10;;;;;;5049587;28;19927;-73
2024/01/18 01:51:51;;;;;;;;;;;6.20;76.80;;;;;;5065951;28;19920;-74
2024/01/18 01:54:20;;;;;;;;;;;6.30;76.80;;;;;;5049746;28;19929;-74
2024/01/18 01:56:47;;;;;;;;;;;6.30;77.00;;;;;;5033107;28;20370;-74
2024/01/18 01:59:15;;;;;;;;;;;6.40;77.00;;;;;;5049783;28;19920;-74
2024/01/18 02:01:42;;;;;;;;;;;6.40;77.10;;;;;;5048939;28;20176;-72
2024/01/18 02:04:08;;;;;;;;;;;6.40;77.00;;;;;;5049626;28;20266;-73
2024/01/18 02:06:36;;;;;;;;;;;6.50;77.30;;;;;;5049922;28;19959;-72
2024/01/18 02:09:02;;;;;;;;;;;6.50;77.40;;;;;;5049838;28;19920;-74
2024/01/18 02:11:28;;;;;;;;;;;6.40;77.40;;;;;;5049970;28;19920;-74
2024/01/18 02:13:54;;;;;;;;;;;6.30;77.80;;;;;;5049963;28;19928;-74
2024/01/18 02:16:21;;;;;;;;;;;6.40;78.00;;;;;;5051731;28;19921;-73
2024/01/18 02:18:47;;;;;;;;;;;6.30;78.20;;;;;;5050479;28;19921;-74
2024/01/18 02:21:14;;;;;;;;;;;6.30;78.60;;;;;;5032665;28;19966;-73
2024/01/18 02:23:41;;;;;;;;;;;6.30;78.50;;;;;;5049915;28;20384;-73
2024/01/18 02:26:07;;;;;;;;;;;6.30;78.30;;;;;;5049507;28;19999;-74
2024/01/18 02:28:33;;;;;;;;;;;6.40;78.60;;;;;;5049548;28;20007;-74
2024/01/18 02:30:59;;;;;;;;;;;6.40;78.20;;;;;;5032596;28;19921;-73
2024/01/18 02:33:24;;;;;;;;;;;6.50;78.20;;;;;;5049186;28;20012;-74
2024/01/18 02:35:50;;;;;;;;;;;6.50;78.20;;;;;;5050944;28;19916;-74
2024/01/18 02:38:16;;;;;;;;;;;6.60;78.20;;;;;;5048889;28;20011;-73
2024/01/18 02:40:42;;;;;;;;;;;6.60;78.40;;;;;;5049037;28;19921;-73
2024/01/18 02:43:08;;;;;;;;;;;6.70;78.60;;;;;;5052006;28;20387;-73
2024/01/18 02:45:36;;;;;;;;;;;6.80;78.80;;;;;;5052970;28;19962;-73
2024/01/18 02:48:02;;;;;;;;;;;6.90;79.10;;;;;;5069905;28;19979;-73
2024/01/18 02:50:28;;;;;;;;;;;6.90;79.20;;;;;;5053502;28;19924;-72
2024/01/18 02:52:54;;;;;;;;;;;7.00;79.60;;;;;;5053396;28;20382;-74
2024/01/18 02:55:20;;;;;;;;;;;7.00;79.70;;;;;;5052986;28;20300;-74
2024/01/18 02:57:46;;;;;;;;;;;7.00;79.30;;;;;;5053614;28;19920;-73
2024/01/18 03:00:12;;;;;;;;;;;7.00;79.60;;;;;;5054098;28;20011;-73
2024/01/18 03:02:38;;;;;;;;;;;7.00;79.40;;;;;;5053390;28;20003;-74
2024/01/18 03:05:05;;;;;;;;;;;7.00;79.50;;;;;;5053604;28;20003;-73
2024/01/18 03:07:33;;;;;;;;;;;7.00;79.40;;;;;;5054333;28;19948;-74
2024/01/18 03:09:59;;;;;;;;;;;7.00;79.90;;;;;;5053801;28;19916;-74
2024/01/18 03:12:25;;;;;;;;;;;7.00;79.90;;;;;;5052456;28;19929;-73
2024/01/18 03:14:50;;;;;;;;;;;7.00;80.20;;;;;;5052956;28;20013;-74
2024/01/18 03:17:16;;;;;;;;;;;7.00;80.30;;;;;;5053105;28;19923;-74
2024/01/18 03:19:42;;;;;;;;;;;7.10;80.20;;;;;;5054570;28;19930;-73
2024/01/18 03:22:08;;;;;;;;;;;7.00;80.40;;;;;;5069461;28;19921;-72
2024/01/18 03:24:34;;;;;;;;;;;7.10;81.40;;;;;;5053202;28;19920;-73
2024/01/18 03:27:00;;;;;;;;;;;7.10;80.40;;;;;;5052528;28;20012;-73
2024/01/18 03:29:26;;;;;;;;;;;7.10;80.80;;;;;;5052466;28;19928;-74
2024/01/18 03:31:52;;;;;;;;;;;7.10;80.90;;;;;;5035610;28;20361;-74
2024/01/18 03:34:18;;;;;;;;;;;7.10;81.40;;;;;;5054516;28;20427;-73
2024/01/18 03:36:44;;;;;;;;;;;7.20;83.80;;;;;;5052016;28;20000;-72
2024/01/18 03:39:10;;;;;;;;;;;7.20;84.00;;;;;;5053215;28;20347;-73
2024/01/18 03:41:36;;;;;;;;;;;7.20;84.40;;;;;;5051277;28;20330;-73
2024/01/18 03:44:01;;;;;;;;;;;7.30;84.90;;;;;;5051779;28;20036;-73
2024/01/18 03:46:27;;;;;;;;;;;7.30;85.70;;;;;;5035540;28;19924;-73
2024/01/18 03:48:53;;;;;;;;;;;7.50;86.00;;;;;;5054042;28;20280;-73
2024/01/18 03:51:19;;;;;;;;;;;7.90;87.30;;;;;;5051535;28;19925;-73
2024/01/18 03:53:45;;;;;;;;;;;8.40;85.70;;;;;;5034462;28;20380;-72
2024/01/18 03:56:14;;;;;;;;;;;8.60;84.50;;;;;;5052496;28;19922;-74
2024/01/18 03:58:41;;;;;;;;;;;8.70;83.90;;;;;;5052048;28;19974;-74
2024/01/18 04:01:07;;;;;;;;;;;8.80;82.90;;;;;;5034997;28;19960;-74
2024/01/18 04:03:33;;;;;;;;;;;8.90;82.80;;;;;;5042775;28;20023;-73
2024/01/18 04:05:59;;;;;;;;;;;9.00;82.20;;;;;;5053026;28;19976;-74
2024/01/18 04:08:25;;;;;;;;;;;9.00;81.60;;;;;;5051395;28;20015;-72
2024/01/18 04:10:51;;;;;;;;;;;9.00;82.00;;;;;;5050924;28;19995;-74
2024/01/18 04:13:16;;;;;;;;;;;9.00;82.40;;;;;;5052934;28;19921;-73
2024/01/18 04:15:42;;;;;;;;;;;8.90;82.50;;;;;;5051254;28;20011;-73
2024/01/18 04:18:09;;;;;;;;;;;9.00;82.20;;;;;;5052754;28;20007;-73
2024/01/18 04:20:35;;;;;;;;;;;8.90;82.40;;;;;;5051830;28;20019;-74
2024/01/18 04:23:01;;;;;;;;;;;8.80;82.20;;;;;;5051443;28;20004;-72
2024/01/18 04:25:27;;;;;;;;;;;8.70;82.30;;;;;;5052136;28;20340;-73
2024/01/18 04:27:52;;;;;;;;;;;8.70;82.50;;;;;;5051512;28;20441;-74
2024/01/18 04:30:19;;;;;;;;;;;8.70;82.50;;;;;;5050800;28;19921;-74
2024/01/18 04:32:45;;;;;;;;;;;8.70;82.40;;;;;;5033993;28;20026;-72
2024/01/18 04:35:11;;;;;;;;;;;8.60;82.20;;;;;;5050998;28;20003;-73
2024/01/18 04:37:37;;;;;;;;;;;8.60;82.30;;;;;;5052302;28;19917;-73
2024/01/18 04:40:03;;;;;;;;;;;8.60;82.80;;;;;;5050575;28;20286;-73
2024/01/18 04:42:29;;;;;;;;;;;8.60;82.20;;;;;;5050382;28;20279;-74
2024/01/18 04:44:55;;;;;;;;;;;8.50;82.60;;;;;;5033970;28;20003;-73
2024/01/18 04:47:21;;;;;;;;;;;8.60;82.80;;;;;;5034585;28;19923;-73
2024/01/18 04:49:47;;;;;;;;;;;8.60;82.80;;;;;;5052167;28;20353;-73
2024/01/18 04:52:13;;;;;;;;;;;8.60;82.90;;;;;;5044368;28;19921;-72
2024/01/18 04:54:39;;;;;;;;;;;8.60;82.80;;;;;;5050705;28;20296;-74
2024/01/18 04:57:05;;;;;;;;;;;8.70;82.20;;;;;;5050914;28;20360;-73
2024/01/18 04:59:31;;;;;;;;;;;8.80;81.70;;;;;;5051108;28;20049;-74
2024/01/18 05:01:58;;;;;;;;;;;8.80;81.70;;;;;;5050802;28;19924;-73
2024/01/18 05:04:24;;;;;;;;;;;9.00;81.60;;;;;;5050251;28;19970;-73
2024/01/18 05:06:50;;;;;;;;;;;9.00;81.50;;;;;;5066751;28;19917;-73
2024/01/18 05:09:16;;;;;;;;;;;9.00;81.20;;;;;;5050246;28;19946;-74
2024/01/18 05:11:43;;;;;;;;;;;9.00;81.60;;;;;;5049810;28;19924;-74
2024/01/18 05:14:09;;;;;;;;;;;9.00;80.60;;;;;;5049982;28;19929;-72
2024/01/18 05:16:39;;;;;;;;;;;9.00;81.00;;;;;;5050488;28;19943;-74
2024/01/18 05:19:24;;;;;;;;;;;9.00;80.30;;;;;;5052104;28;20400;-73
2024/01/18 05:21:51;;;;;;;;;;;9.00;80.60;;;;;;5049909;28;19921;-72
2024/01/18 05:24:16;;;;;;;;;;;9.00;81.00;;;;;;5050973;28;20449;-74
2024/01/18 05:26:42;;;;;;;;;;;9.00;81.10;;;;;;5051435;28;20093;-74
2024/01/18 05:29:08;;;;;;;;;;;9.00;81.10;;;;;;5050219;28;20366;-72
2024/01/18 05:31:34;;;;;;;;;;;9.10;81.50;;;;;;5049549;28;20059;-72
2024/01/18 05:34:00;;;;;;;;;;;9.10;81.70;;;;;;5050066;28;19920;-74
2024/01/18 05:36:26;;;;;;;;;;;9.20;81.70;;;;;;5051450;28;20015;-73
2024/01/18 05:38:52;;;;;;;;;;;9.20;81.50;;;;;;5049945;28;19920;-74
2024/01/18 05:41:18;;;;;;;;;;;9.20;81.30;;;;;;5049572;28;20050;-74
2024/01/18 05:43:43;;;;;;;;;;;9.30;81.00;;;;;;5050494;28;19927;-74
2024/01/18 05:46:09;;;;;;;;;;;9.30;80.60;;;;;;5049453;28;19917;-74
2024/01/18 05:48:35;;;;;;;;;;;9.30;80.30;;;;;;5050938;28;20339;-73
2024/01/18 05:51:01;;;;;;;;;;;9.50;79.90;;;;;;5050031;28;20003;-74
2024/01/18 05:53:29;;;;;;;;;;;9.70;79.20;;;;;;5049925;28;19921;-73
2024/01/18 05:55:55;;;;;;;;;;;9.80;78.50;;;;;;5049866;28;20292;-73
2024/01/18 05:58:22;;;;;;;;;;;9.80;78.10;;;;;;5050502;28;20043;-74
2024/01/18 06:00:47;;;;;;;;;;;9.90;77.50;;;;;;5032773;28;20016;-74
2024/01/18 06:03:13;;;;;;;;;;;9.90;77.20;;;;;;5049362;28;19920;-73
2024/01/18 06:05:39;;;;;;;;;;;9.90;78.00;;;;;;5051110;28;19921;-73
2024/01/18 06:08:06;;;;;;;;;;;9.90;78.00;;;;;;5050652;28;20277;-74
2024/01/18 06:10:33;;;;;;;;;;;9.90;77.40;;;;;;5048910;28;19920;-73
2024/01/18 06:12:59;;;;;;;;;;;9.80;77.60;;;;;;5050854;28;19921;-74
2024/01/18 06:15:25;;;;;;;;;;;9.70;77.20;;;;;;5050474;28;19921;-73
2024/01/18 06:17:51;;;;;;;;;;;9.70;77.90;;;;;;5052122;28;19967;-74
2024/01/18 06:20:17;;;;;;;;;;;9.70;78.10;;;;;;5053699;28;19916;-72
2024/01/18 06:22:43;;;;;;;;;;;9.90;77.80;;;;;;5054640;28;19916;-72
2024/01/18 06:25:09;;;;;;;;;;;10.10;77.10;;;;;;5053121;28;20323;-73
2024/01/18 06:27:35;;;;;;;;;;;10.60;74.60;;;;;;5054550;28;20358;-72
2024/01/18 06:30:01;;;;;;;;;;;10.90;72.70;;;;;;5054742;28;19917;-73
2024/01/18 06:32:27;;;;;;;;;;;11.10;71.40;;;;;;5053850;28;21074;-72
2024/01/18 06:34:53;;;;;;;;;;;11.40;70.80;;;;;;5055174;28;20284;-73
2024/01/18 06:37:19;;;;;;;;;;;11.80;69.80;;;;;;5054127;28;20008;-73
2024/01/18 06:39:46;;;;;;;;;;;12.00;69.10;;;;;;5052963;28;20019;-73
2024/01/18 06:42:12;;;;;;;;;;;12.10;68.40;;;;;;5053793;28;19920;-74
2024/01/18 06:44:38;;;;;;;;;;;12.20;67.80;;;;;;5052966;28;19954;-73
2024/01/18 06:47:04;;;;;;;;;;;12.30;67.60;;;;;;5052963;28;20017;-74
2024/01/18 06:49:30;;;;;;;;;;;12.40;66.40;;;;;;5052975;28;20384;-74
2024/01/18 06:51:56;;;;;;;;;;;12.50;66.70;;;;;;5053449;28;19924;-72
2024/01/18 06:54:22;;;;;;;;;;;12.60;66.70;;;;;;5054281;28;20389;-73
2024/01/18 06:56:48;;;;;;;;;;;12.70;66.10;;;;;;5036162;28;19923;-74
2024/01/18 06:59:15;;;;;;;;;;;12.80;65.40;;;;;;5054201;28;19920;-72
2024/01/18 07:01:41;;;;;;;;;;;12.90;65.70;;;;;;5045313;28;20385;-72
2024/01/18 07:04:06;;;;;;;;;;;12.90;65.60;;;;;;5054040;28;19925;-73
2024/01/18 07:06:32;;;;;;;;;;;12.90;65.90;;;;;;5053945;28;19916;-72
2024/01/18 07:08:58;;;;;;;;;;;13.00;65.00;;;;;;5052415;28;20246;-73
2024/01/18 07:11:24;;;;;;;;;;;13.00;65.40;;;;;;5053263;28;19920;-72
2024/01/18 07:13:50;;;;;;;;;;;13.00;65.10;;;;;;5035937;28;19921;-73
2024/01/18 07:16:16;;;;;;;;;;;13.00;65.00;;;;;;5053750;28;20162;-73
2024/01/18 07:18:42;;;;;;;;;;;13.00;64.60;;;;;;5052690;28;20318;-72
2024/01/18 07:21:08;;;;;;;;;;;13.10;65.20;;;;;;5053026;28;20011;-72
2024/01/18 07:23:34;;;;;;;;;;;13.10;64.90;;;;;;5053409;28;20024;-72
2024/01/18 07:26:00;;;;;;;;;;;13.10;64.50;;;;;;5052741;28;19959;-73
2024/01/18 07:28:25;;;;;;;;;;;13.10;64.70;;;;;;5053320;28;19963;-74
2024/01/18 07:30:51;;;;;;;;;;;13.10;64.60;;;;;;5051868;28;19920;-74
2024/01/18 07:33:17;;;;;;;;;;;13.10;64.30;;;;;;5035311;28;20353;-72
2024/01/18 07:35:43;;;;;;;;;;;13.10;64.50;;;;;;5052168;28;19963;-74
2024/01/18 07:38:10;;;;;;;;;;;13.10;64.50;;;;;;5051879;28;19924;-73
2024/01/18 07:40:35;;;;;;;;;;;13.20;64.60;;;;;;5051336;28;20369;-74
2024/01/18 07:43:01;;;;;;;;;;;13.20;64.40;;;;;;5035339;28;20059;-73
2024/01/18 07:45:27;;;;;;;;;;;13.30;63.80;;;;;;5053029;28;19916;-72
2024/01/18 07:47:53;;;;;;;;;;;13.30;63.30;;;;;;5053487;28;19971;-72
2024/01/18 07:50:19;;;;;;;;;;;13.40;62.70;;;;;;5052651;28;20020;-72
2024/01/18 07:52:45;;;;;;;;;;;13.50;62.50;;;;;;5051311;28;19924;-71
2024/01/18 07:55:11;;;;;;;;;;;13.50;62.20;;;;;;5053003;28;19932;-74
2024/01/18 07:57:37;;;;;;;;;;;13.60;62.20;;;;;;5052808;28;19966;-72
2024/01/18 08:00:03;;;;;;;;;;;13.70;62.40;;;;;;5052876;28;20386;-73
2024/01/18 08:02:29;;;;;;;;;;;13.70;61.30;;;;;;5051539;28;19913;-72
2024/01/18 08:04:55;;;;;;;;;;;13.80;61.80;;;;;;5052606;28;19923;-72
2024/01/18 08:07:20;;;;;;;;;;;13.90;62.10;;;;;;5052716;28;20019;-73
2024/01/18 08:09:46;;;;;;;;;;;14.00;62.20;;;;;;5051326;28;20035;-74
2024/01/18 08:12:12;;;;;;;;;;;14.10;62.50;;;;;;5052413;28;20027;-72
2024/01/18 08:14:57;;;;;;;;;;;14.10;63.50;;;;;;5034537;28;19964;-74
2024/01/18 08:17:22;;;;;;;;;;;14.10;62.30;;;;;;5051366;28;20553;-73
2024/01/18 08:19:48;;;;;;;;;;;14.20;61.60;;;;;;5034644;28;19932;-73
2024/01/18 08:22:15;;;;;;;;;;;14.30;60.50;;;;;;5051620;28;19925;-72
2024/01/18 08:24:41;;;;;;;;;;;14.30;60.50;;;;;;5051419;28;20035;-72
2024/01/18 08:27:07;;;;;;;;;;;14.30;61.30;;;;;;5052179;28;19962;-74
2024/01/18 08:29:34;;;;;;;;;;;14.20;60.60;;;;;;5052854;28;19920;-72
2024/01/18 08:32:02;;;;;;;;;;;14.30;60.90;;;;;;5033614;28;19928;-72
2024/01/18 08:34:28;;;;;;;;;;;14.30;61.20;;;;;;5052494;28;20361;-73
2024/01/18 08:36:54;;;;;;;;;;;14.30;61.20;;;;;;5050870;28;19948;-72
2024/01/18 08:39:19;;;;;;;;;;;14.20;61.50;;;;;;5051326;28;19921;-72
2024/01/18 08:41:45;;;;;;;;;;;14.20;61.50;;;;;;5051380;28;19939;-74
2024/01/18 08:44:11;;;;;;;;;;;14.10;62.10;;;;;;5051065;28;20018;-72
2024/01/18 08:46:56;;;;;;;;;;;14.00;63.20;;;;;;5050592;28;19923;-72
2024/01/18 08:49:24;;;;;;;;;;;13.90;63.90;;;;;;5046274;28;20435;-74
2024/01/18 08:51:51;;;;;;;;;;;13.90;64.30;;;;;;5051108;28;19925;-72
2024/01/18 08:54:17;;;;;;;;;;;13.90;64.10;;;;;;5052399;28;19925;-72
2024/01/18 08:56:43;;;;;;;;;;;13.90;64.70;;;;;;5050759;28;19920;-74
2024/01/18 08:59:09;;;;;;;;;;;13.80;65.70;;;;;;5051437;28;19962;-72
2024/01/18 09:01:36;;;;;;;;;;;13.80;66.60;;;;;;5050074;28;19966;-74
2024/01/18 09:04:02;;;;;;;;;;;13.80;68.10;;;;;;5050280;28;19956;-74
2024/01/18 09:06:29;;;;;;;;;;;13.70;67.90;;;;;;5052104;28;19917;-72
2024/01/18 09:08:54;;;;;;;;;;;13.60;69.00;;;;;;5051307;28;19963;-72
2024/01/18 09:11:21;;;;;;;;;;;13.60;68.90;;;;;;5051285;28;20015;-72
2024/01/18 09:13:47;;;;;;;;;;;13.60;69.10;;;;;;5051969;28;20362;-73
2024/01/18 09:19:01;;;;;;;;;;;13.60;70.50;;;;;;5050436;28;19927;-72
2024/01/18 09:21:27;;;;;;;;;;;13.60;71.90;;;;;;5032743;28;20456;-72
2024/01/18 09:23:53;;;;;;;;;;;13.40;73.90;;;;;;5033557;28;19971;-72
2024/01/18 09:26:19;;;;;;;;;;;13.10;76.90;;;;;;5042617;28;19920;-73
2024/01/18 09:28:45;;;;;;;;;;;13.00;79.40;;;;;;5050440;28;20281;-73
2024/01/18 09:31:11;;;;;;;;;;;12.80;80.70;;;;;;5050733;28;19925;-71
2024/01/18 09:33:40;;;;;;;;;;;12.70;80.90;;;;;;5049753;28;20282;-73
2024/01/18 09:36:06;;;;;;;;;;;12.60;82.20;;;;;;5051014;28;20325;-71
2024/01/18 09:38:33;;;;;;;;;;;12.50;82.50;;;;;;5051475;28;19967;-71
2024/01/18 09:41:04;;;;;;;;;;;12.40;83.60;;;;;;5050544;28;19920;-71
2024/01/18 09:46:40;;;;;;;;;;;12.20;85.60;;;;;;5051195;28;19971;-72
2024/01/18 09:49:07;;;;;;;;;;;12.10;86.80;;;;;;5049694;28;19936;-72
2024/01/18 09:51:33;;;;;;;;;;;12.00;87.50;;;;;;5052289;28;20293;-72
2024/01/18 09:54:00;;;;;;;;;;;12.00;87.60;;;;;;5037552;28;20404;-71
2024/01/18 09:56:27;;;;;;;;;;;12.00;87.90;;;;;;5055336;28;20409;-72
2024/01/18 09:58:55;;;;;;;;;;;12.00;87.50;;;;;;5053744;28;20317;-71
2024/01/18 10:01:22;;;;;;;;;;;12.00;87.30;;;;;;5053222;28;19921;-73
2024/01/18 10:03:48;;;;;;;;;;;12.00;86.70;;;;;;5053503;28;19978;-71
2024/01/18 10:06:17;;;;;;;;;;;12.00;86.80;;;;;;5053697;28;19921;-72
2024/01/18 10:09:05;;;;;;;;;;;12.10;86.40;;;;;;5054310;28;20392;-72
2024/01/18 10:11:31;;;;;;;;;;;12.10;85.60;;;;;;5054739;28;19974;-71
2024/01/18 10:13:59;;;;;;;;;;;12.10;84.60;;;;;;5037197;28;19921;-73
2024/01/18 10:16:43;;;;;;;;;;;12.20;84.30;;;;;;5054630;28;19917;-71
2024/01/18 10:21:56;;;;;;;;;;;12.30;83.40;;;;;;5054018;28;20035;-73
2024/01/18 10:24:22;;;;;;;;;;;12.30;83.10;;;;;;5036726;28;19921;-72
2024/01/18 10:26:48;;;;;;;;;;;12.30;83.10;;;;;;5053512;28;20381;-73
2024/01/18 10:29:14;;;;;;;;;;;12.40;82.70;;;;;;5053198;28;19921;-73
2024/01/18 10:31:42;;;;;;;;;;;12.40;81.60;;;;;;5052834;28;19927;-71
2024/01/18 10:34:08;;;;;;;;;;;12.50;81.30;;;;;;5054694;28;20366;-71
2024/01/18 10:36:34;;;;;;;;;;;12.60;80.90;;;;;;5054736;28;19952;-73
2024/01/18 10:39:20;;;;;;;;;;;12.70;80.80;;;;;;5054289;28;20344;-71
2024/01/18 10:41:46;;;;;;;;;;;12.80;81.10;;;;;;5045581;28;19928;-71
2024/01/18 10:44:31;;;;;;;;;;;12.90;80.80;;;;;;5036654;28;19920;-72
2024/01/18 10:46:57;;;;;;;;;;;13.00;80.90;;;;;;5054134;28;19920;-71
2024/01/18 10:49:23;;;;;;;;;;;13.00;80.90;;;;;;5053999;28;20286;-71
2024/01/18 10:51:50;;;;;;;;;;;13.10;81.10;;;;;;5051960;28;19928;-73
2024/01/18 10:54:17;;;;;;;;;;;13.10;80.40;;;;;;5036308;28;19944;-71
2024/01/18 10:56:42;;;;;;;;;;;13.10;80.60;;;;;;5052873;28;19917;-71
2024/01/18 10:59:09;;;;;;;;;;;13.10;80.60;;;;;;5053916;28;20377;-73
2024/01/18 11:01:36;;;;;;;;;;;13.10;80.00;;;;;;5053493;28;19952;-71
2024/01/18 11:04:02;;;;;;;;;;;13.10;80.10;;;;;;5035269;28;20360;-71
2024/01/18 11:06:28;;;;;;;;;;;13.20;80.30;;;;;;5052545;28;19962;-73
2024/01/18 11:08:55;;;;;;;;;;;13.20;79.20;;;;;;5053999;28;19927;-71
2024/01/18 11:11:21;;;;;;;;;;;13.20;79.10;;;;;;5051808;28;19921;-72
2024/01/18 11:13:47;;;;;;;;;;;13.30;78.20;;;;;;5052686;28;19931;-72
2024/01/18 11:16:13;;;;;;;;;;;13.40;77.20;;;;;;5052523;28;19917;-71
2024/01/18 11:18:39;;;;;;;;;;;13.40;77.10;;;;;;5052416;28;20427;-72
2024/01/18 11:21:06;;;;;;;;;;;13.50;76.80;;;;;;5053117;28;19921;-73
2024/01/18 11:23:51;;;;;;;;;;;13.50;76.20;;;;;;5051969;28;19928;-72
2024/01/18 11:26:36;;;;;;;;;;;13.60;76.30;;;;;;5035795;28;19921;-73
2024/01/18 11:32:05;;;;;;;;;;;13.70;75.50;;;;;;5046902;28;19966;-72
2024/01/18 11:34:36;;;;;;;;;;;13.90;76.10;;;;;;5051906;28;19974;-71
2024/01/18 11:37:24;;;;;;;;;;;14.10;75.80;;;;;;5052264;28;19916;-73
2024/01/18 11:39:50;;;;;;;;;;;14.40;74.60;;;;;;5051883;28;19925;-71
2024/01/18 11:42:35;;;;;;;;;;;14.60;73.20;;;;;;5052905;28;19924;-73
2024/01/18 11:45:09;;;;;;;;;;;14.60;72.30;;;;;;5044839;28;20285;-72
2024/01/18 11:47:37;;;;;;;;;;;14.60;71.60;;;;;;5051654;28;19924;-74
2024/01/18 11:50:10;;;;;;;;;;;14.60;72.30;;;;;;5052756;28;20011;-72
2024/01/18 11:52:56;;;;;;;;;;;14.70;72.10;;;;;;5052668;28;20403;-72
2024/01/18 11:55:24;;;;;;;;;;;14.70;72.00;;;;;;5053435;28;20260;-72
2024/01/18 11:57:52;;;;;;;;;;;14.70;71.10;;;;;;5035023;28;20435;-72
2024/01/18 12:00:19;;;;;;;;;;;14.80;71.30;;;;;;5051289;28;19924;-72
2024/01/18 12:02:45;;;;;;;;;;;14.80;71.30;;;;;;5052686;28;19920;-72
2024/01/18 12:05:11;;;;;;;;;;;14.80;70.50;;;;;;5051561;28;19923;-72
2024/01/18 12:07:38;;;;;;;;;;;14.90;71.10;;;;;;5051567;28;19916;-72
2024/01/18 12:10:05;;;;;;;;;;;15.00;70.10;;;;;;5034334;28;20289;-73
2024/01/18 12:12:31;;;;;;;;;;;15.10;69.70;;;;;;5051259;28;19916;-73
2024/01/18 12:14:57;;;;;;;;;;;15.10;68.90;;;;;;5050365;28;19917;-72
2024/01/18 12:17:23;;;;;;;;;;;15.10;69.10;;;;;;5051482;28;19917;-72
2024/01/18 12:19:49;;;;;;;;;;;15.10;69.40;;;;;;5051249;28;19925;-73
2024/01/18 12:22:34;;;;;;;;;;;15.10;68.20;;;;;;5050570;28;19921;-73
2024/01/18 12:25:00;;;;;;;;;;;15.10;67.60;;;;;;5051114;28;20281;-73
2024/01/18 12:27:26;;;;;;;;;;;15.00;68.30;;;;;;5051152;28;19921;-72
2024/01/18 12:29:51;;;;;;;;;;;15.00;67.50;;;;;;5051139;28;19954;-72
2024/01/18 12:32:18;;;;;;;;;;;15.00;67.40;;;;;;5051830;28;19921;-72
2024/01/18 12:34:44;;;;;;;;;;;15.00;65.70;;;;;;5052548;28;19974;-72
2024/01/18 12:37:12;;;;;;;;;;;14.90;64.70;;;;;;5043101;28;20396;-72
2024/01/18 12:39:38;;;;;;;;;;;14.90;65.20;;;;;;5034650;28;20046;-73
2024/01/18 12:42:04;;;;;;;;;;;14.90;65.30;;;;;;5049922;28;19920;-73
2024/01/18 12:44:30;;;;;;;;;;;15.00;63.80;;;;;;5051116;28;19920;-73
2024/01/18 12:46:58;;;;;;;;;;;15.40;62.60;;;;;;5051846;28;20409;-73
2024/01/18 12:49:25;;;;;;;;;;;15.60;61.10;;;;;;5052430;28;19927;-72
2024/01/18 12:52:10;;;;;;;;;;;15.40;59.70;;;;;;5049863;28;20047;-72
2024/01/18 12:54:36;;;;;;;;;;;15.20;60.60;;;;;;5045743;28;19921;-71
2024/01/18 12:57:04;;;;;;;;;;;15.10;62.20;;;;;;5050861;28;19923;-71
2024/01/18 12:59:30;;;;;;;;;;;15.10;61.00;;;;;;5051706;28;19925;-73
2024/01/18 13:01:56;;;;;;;;;;;14.90;60.40;;;;;;5051144;28;19921;-73
2024/01/18 13:04:27;;;;;;;;;;;14.90;61.90;;;;;;5050427;28;19927;-72
2024/01/18 13:06:55;;;;;;;;;;;14.90;61.30;;;;;;5050586;28;19916;-73
2024/01/18 13:09:40;;;;;;;;;;;15.00;60.40;;;;;;5050572;28;19921;-72
2024/01/18 13:12:06;;;;;;;;;;;15.00;61.60;;;;;;5049611;28;20297;-71
2024/01/18 13:14:35;;;;;;;;;;;15.00;59.90;;;;;;5051936;28;20296;-73
2024/01/18 13:17:01;;;;;;;;;;;14.90;59.90;;;;;;5050045;28;19921;-73
2024/01/18 13:19:28;;;;;;;;;;;14.90;59.30;;;;;;5050443;28;20328;-73
2024/01/18 13:21:54;;;;;;;;;;;14.90;59.50;;;;;;5049895;28;20404;-73
2024/01/18 13:24:20;;;;;;;;;;;14.90;60.20;;;;;;5049590;28;19921;-71
2024/01/18 13:26:47;;;;;;;;;;;14.90;58.60;;;;;;5050034;28;20301;-72
2024/01/18 13:29:16;;;;;;;;;;;15.00;59.10;;;;;;5049824;28;19952;-73
2024/01/18 13:31:42;;;;;;;;;;;15.30;58.90;;;;;;5049658;28;19927;-73
2024/01/18 13:34:08;;;;;;;;;;;15.50;57.00;;;;;;5049793;28;20024;-73
2024/01/18 13:36:34;;;;;;;;;;;15.60;57.70;;;;;;5051449;28;20397;-72
2024/01/18 13:39:01;;;;;;;;;;;15.80;56.20;;;;;;5050139;28;19928;-73
2024/01/18 13:41:27;;;;;;;;;;;15.80;56.70;;;;;;5049225;28;19972;-73
2024/01/18 13:43:53;;;;;;;;;;;15.80;55.80;;;;;;5050354;28;19921;-73
2024/01/18 13:46:20;;;;;;;;;;;15.80;55.90;;;;;;5050954;28;19921;-73
2024/01/18 13:48:46;;;;;;;;;;;15.70;56.20;;;;;;5051433;28;19927;-73
2024/01/18 13:51:13;;;;;;;;;;;15.70;57.10;;;;;;5049063;28;19921;-72
2024/01/18 13:53:40;;;;;;;;;;;15.60;56.10;;;;;;5049566;28;19966;-74
2024/01/18 13:56:06;;;;;;;;;;;15.50;56.10;;;;;;5049767;28;20023;-74
2024/01/18 13:58:32;;;;;;;;;;;15.70;55.30;;;;;;5050954;28;20012;-72
2024/01/18 14:00:59;;;;;;;;;;;16.00;54.20;;;;;;5032857;28;19921;-72
2024/01/18 14:03:25;;;;;;;;;;;16.40;52.90;;;;;;5049821;28;19921;-73
2024/01/18 14:05:51;;;;;;;;;;;17.40;49.90;;;;;;5051017;28;19917;-72
2024/01/18 14:08:17;;;;;;;;;;;18.10;46.80;;;;;;5049533;28;19928;-72
2024/01/18 14:10:43;;;;;;;;;;;17.70;46.70;;;;;;5050449;28;19974;-72
2024/01/18 14:13:09;;;;;;;;;;;16.80;47.00;;;;;;5050908;28;20340;-74
2024/01/18 14:15:36;;;;;;;;;;;16.40;50.80;;;;;;5041827;28;20427;-72
2024/01/18 14:18:04;;;;;;;;;;;16.10;51.80;;;;;;5050529;28;19921;-74
2024/01/18 14:20:30;;;;;;;;;;;15.90;52.50;;;;;;5048799;28;19928;-71
2024/01/18 14:22:56;;;;;;;;;;;15.70;53.30;;;;;;5032883;28;19960;-72
2024/01/18 14:25:22;;;;;;;;;;;15.50;53.60;;;;;;5050595;28;19970;-74
2024/01/18 14:27:48;;;;;;;;;;;15.30;53.50;;;;;;5049815;28;20011;-72
2024/01/18 14:30:14;;;;;;;;;;;15.20;54.00;;;;;;5049733;28;19920;-72
2024/01/18 14:32:40;;;;;;;;;;;15.00;54.80;;;;;;5050536;28;20369;-71
2024/01/18 14:35:06;;;;;;;;;;;15.00;53.90;;;;;;5049332;28;20509;-73